sensor_id;sensor_type;location;lat;lon;timestamp;temperature;humidity
22827;DHT22;11580;52.562;13.418;2022-11-15T00:01:52;9.70;40.90
22827;DHT22;11580;52.562;13.418;2022-11-15T00:04:38;9.70;40.90
22827;DHT22;11580;52.562;13.418;2022-11-15T00:07:24;9.70;41.60
22827;DHT22;11580;52.562;13.418;2022-11-15T00:10:10;9.70;41.60
22827;DHT22;11580;52.562;13.418;2022-11-15T00:12:56;9.60;40.80
22827;DHT22;11580;52.562;13.418;2022-11-15T00:15:42;9.60;40.80
22827;DHT22;11580;52.562;13.418;2022-11-15T00:18:28;9.60;40.80
22827;DHT22;11580;52.562;13.418;2022-11-15T00:21:15;9.60;40.80
22827;DHT22;11580;52.562;13.418;2022-11-15T00:24:02;9.60;40.90
22827;DHT22;11580;52.562;13.418;2022-11-15T00:26:49;9.60;40.80
22827;DHT22;11580;52.562;13.418;2022-11-15T00:29:35;9.60;40.80
22827;DHT22;11580;52.562;13.418;2022-11-15T00:32:22;9.60;40.80
22827;DHT22;11580;52.562;13.418;2022-11-15T00:35:08;9.60;40.80
22827;DHT22;11580;52.562;13.418;2022-11-15T00:37:54;9.60;41.50
22827;DHT22;11580;52.562;13.418;2022-11-15T00:40:40;9.60;40.80
22827;DHT22;11580;52.562;13.418;2022-11-15T00:43:27;9.60;40.80
22827;DHT22;11580;52.562;13.418;2022-11-15T00:46:13;9.60;40.80
22827;DHT22;11580;52.562;13.418;2022-11-15T00:48:59;9.60;40.80
22827;DHT22;11580;52.562;13.418;2022-11-15T00:51:44;9.60;40.90
22827;DHT22;11580;52.562;13.418;2022-11-15T00:54:30;9.60;40.80
22827;DHT22;11580;52.562;13.418;2022-11-15T00:57:15;9.60;40.80
22827;DHT22;11580;52.562;13.418;2022-11-15T01:00:03;9.60;40.80
22827;DHT22;11580;52.562;13.418;2022-11-15T01:02:50;9.60;40.80
22827;DHT22;11580;52.562;13.418;2022-11-15T01:05:37;9.60;41.50
22827;DHT22;11580;52.562;13.418;2022-11-15T01:08:23;9.60;40.80
22827;DHT22;11580;52.562;13.418;2022-11-15T01:11:11;9.60;40.80
22827;DHT22;11580;52.562;13.418;2022-11-15T01:13:57;9.60;40.80
22827;DHT22;11580;52.562;13.418;2022-11-15T01:16:44;9.60;40.80
22827;DHT22;11580;52.562;13.418;2022-11-15T01:19:30;9.60;40.80
22827;DHT22;11580;52.562;13.418;2022-11-15T01:22:16;9.50;40.70
22827;DHT22;11580;52.562;13.418;2022-11-15T01:25:02;9.50;40.80
22827;DHT22;11580;52.562;13.418;2022-11-15T01:27:48;9.50;40.70
22827;DHT22;11580;52.562;13.418;2022-11-15T01:30:33;9.50;40.70
22827;DHT22;11580;52.562;13.418;2022-11-15T01:33:22;9.50;40.70
22827;DHT22;11580;52.562;13.418;2022-11-15T01:36:10;9.50;40.70
22827;DHT22;11580;52.562;13.418;2022-11-15T01:38:58;9.50;40.70
22827;DHT22;11580;52.562;13.418;2022-11-15T01:41:44;9.50;40.70
22827;DHT22;11580;52.562;13.418;2022-11-15T01:44:38;9.50;40.70
22827;DHT22;11580;52.562;13.418;2022-11-15T01:47:31;9.40;41.20
22827;DHT22;11580;52.562;13.418;2022-11-15T01:50:26;9.50;41.40
22827;DHT22;11580;52.562;13.418;2022-11-15T01:53:16;9.50;40.90
22827;DHT22;11580;52.562;13.418;2022-11-15T01:56:06;9.40;40.70
22827;DHT22;11580;52.562;13.418;2022-11-15T01:58:57;9.40;40.70
22827;DHT22;11580;52.562;13.418;2022-11-15T02:01:47;9.40;40.70
22827;DHT22;11580;52.562;13.418;2022-11-15T02:04:35;9.40;40.70
22827;DHT22;11580;52.562;13.418;2022-11-15T02:07:25;9.40;40.70
22827;DHT22;11580;52.562;13.418;2022-11-15T02:10:16;9.40;40.70
22827;DHT22;11580;52.562;13.418;2022-11-15T02:13:04;9.40;40.70
22827;DHT22;11580;52.562;13.418;2022-11-15T02:16:03;9.30;40.70
22827;DHT22;11580;52.562;13.418;2022-11-15T02:18:59;9.40;40.90
22827;DHT22;11580;52.562;13.418;2022-11-15T02:22:03;9.40;40.90
22827;DHT22;11580;52.562;13.418;2022-11-15T02:25:22;9.30;41.30
22827;DHT22;11580;52.562;13.418;2022-11-15T02:28:38;9.30;41.60
22827;DHT22;11580;52.562;13.418;2022-11-15T02:31:39;9.30;41.30
22827;DHT22;11580;52.562;13.418;2022-11-15T02:34:36;9.30;40.90
22827;DHT22;11580;52.562;13.418;2022-11-15T02:37:35;9.30;40.90
22827;DHT22;11580;52.562;13.418;2022-11-15T02:40:32;9.30;41.10
22827;DHT22;11580;52.562;13.418;2022-11-15T02:43:31;9.30;41.10
22827;DHT22;11580;52.562;13.418;2022-11-15T02:46:42;9.30;41.00
22827;DHT22;11580;52.562;13.418;2022-11-15T02:49:52;9.30;40.90
22827;DHT22;11580;52.562;13.418;2022-11-15T02:52:39;9.30;41.40
22827;DHT22;11580;52.562;13.418;2022-11-15T02:55:27;9.30;40.60
22827;DHT22;11580;52.562;13.418;2022-11-15T02:58:43;9.30;40.80
22827;DHT22;11580;52.562;13.418;2022-11-15T03:02:13;9.30;41.80
22827;DHT22;11580;52.562;13.418;2022-11-15T03:05:14;9.30;41.40
22827;DHT22;11580;52.562;13.418;2022-11-15T03:08:08;9.30;41.20
22827;DHT22;11580;52.562;13.418;2022-11-15T03:11:06;9.30;41.70
22827;DHT22;11580;52.562;13.418;2022-11-15T03:13:57;9.20;41.00
22827;DHT22;11580;52.562;13.418;2022-11-15T03:16:51;9.20;40.90
22827;DHT22;11580;52.562;13.418;2022-11-15T03:19:46;9.20;41.20
22827;DHT22;11580;52.562;13.418;2022-11-15T03:22:36;9.20;41.10
22827;DHT22;11580;52.562;13.418;2022-11-15T03:25:25;9.20;40.90
22827;DHT22;11580;52.562;13.418;2022-11-15T03:28:18;9.20;40.90
22827;DHT22;11580;52.562;13.418;2022-11-15T03:31:12;9.20;41.20
22827;DHT22;11580;52.562;13.418;2022-11-15T03:34:27;9.20;40.90
22827;DHT22;11580;52.562;13.418;2022-11-15T03:37:21;9.20;41.40
22827;DHT22;11580;52.562;13.418;2022-11-15T03:40:10;9.20;41.20
22827;DHT22;11580;52.562;13.418;2022-11-15T03:43:01;9.20;40.80
22827;DHT22;11580;52.562;13.418;2022-11-15T03:45:55;9.20;42.00
22827;DHT22;11580;52.562;13.418;2022-11-15T03:48:50;9.20;41.10
22827;DHT22;11580;52.562;13.418;2022-11-15T03:51:39;9.20;41.30
22827;DHT22;11580;52.562;13.418;2022-11-15T03:54:26;9.20;40.90
22827;DHT22;11580;52.562;13.418;2022-11-15T03:57:12;9.20;41.10
22827;DHT22;11580;52.562;13.418;2022-11-15T03:59:57;9.20;41.00
22827;DHT22;11580;52.562;13.418;2022-11-15T04:02:43;9.20;41.10
22827;DHT22;11580;52.562;13.418;2022-11-15T04:05:29;9.20;41.10
22827;DHT22;11580;52.562;13.418;2022-11-15T04:08:15;9.30;41.20
22827;DHT22;11580;52.562;13.418;2022-11-15T04:11:02;9.30;41.30
22827;DHT22;11580;52.562;13.418;2022-11-15T04:13:48;9.30;42.10
22827;DHT22;11580;52.562;13.418;2022-11-15T04:16:33;9.30;41.20
22827;DHT22;11580;52.562;13.418;2022-11-15T04:19:19;9.30;41.20
22827;DHT22;11580;52.562;13.418;2022-11-15T04:22:37;9.30;41.30
22827;DHT22;11580;52.562;13.418;2022-11-15T04:25:40;9.30;41.20
22827;DHT22;11580;52.562;13.418;2022-11-15T04:28:28;9.30;41.20
22827;DHT22;11580;52.562;13.418;2022-11-15T04:31:14;9.30;41.40
22827;DHT22;11580;52.562;13.418;2022-11-15T04:33:59;9.40;42.00
22827;DHT22;11580;52.562;13.418;2022-11-15T04:36:45;9.30;41.30
22827;DHT22;11580;52.562;13.418;2022-11-15T04:39:49;9.40;41.40
22827;DHT22;11580;52.562;13.418;2022-11-15T04:42:34;9.40;41.30
22827;DHT22;11580;52.562;13.418;2022-11-15T04:45:21;9.40;42.00
22827;DHT22;11580;52.562;13.418;2022-11-15T04:48:07;9.40;41.50
22827;DHT22;11580;52.562;13.418;2022-11-15T04:50:52;9.40;42.10
22827;DHT22;11580;52.562;13.418;2022-11-15T04:53:38;9.40;41.40
22827;DHT22;11580;52.562;13.418;2022-11-15T04:56:23;9.40;41.40
22827;DHT22;11580;52.562;13.418;2022-11-15T04:59:09;9.40;41.40
22827;DHT22;11580;52.562;13.418;2022-11-15T05:01:56;9.40;42.10
22827;DHT22;11580;52.562;13.418;2022-11-15T05:04:42;9.40;41.50
22827;DHT22;11580;52.562;13.418;2022-11-15T05:07:27;9.40;41.40
22827;DHT22;11580;52.562;13.418;2022-11-15T05:10:12;9.40;41.30
22827;DHT22;11580;52.562;13.418;2022-11-15T05:12:58;9.40;41.30
22827;DHT22;11580;52.562;13.418;2022-11-15T05:15:45;9.50;41.40
22827;DHT22;11580;52.562;13.418;2022-11-15T05:18:32;9.50;42.10
22827;DHT22;11580;52.562;13.418;2022-11-15T05:21:18;9.50;41.50
22827;DHT22;11580;52.562;13.418;2022-11-15T05:24:05;9.50;41.40
22827;DHT22;11580;52.562;13.418;2022-11-15T05:26:50;9.50;41.40
22827;DHT22;11580;52.562;13.418;2022-11-15T05:29:36;9.50;41.30
22827;DHT22;11580;52.562;13.418;2022-11-15T05:32:22;9.50;41.30
22827;DHT22;11580;52.562;13.418;2022-11-15T05:35:14;9.50;42.00
22827;DHT22;11580;52.562;13.418;2022-11-15T05:38:05;9.50;41.60
22827;DHT22;11580;52.562;13.418;2022-11-15T05:40:50;9.50;41.30
22827;DHT22;11580;52.562;13.418;2022-11-15T05:43:37;9.50;41.30
22827;DHT22;11580;52.562;13.418;2022-11-15T05:46:25;9.50;41.40
22827;DHT22;11580;52.562;13.418;2022-11-15T05:49:14;9.50;41.30
22827;DHT22;11580;52.562;13.418;2022-11-15T05:52:05;9.50;42.20
22827;DHT22;11580;52.562;13.418;2022-11-15T05:54:53;9.50;42.20
22827;DHT22;11580;52.562;13.418;2022-11-15T05:57:40;9.50;42.00
22827;DHT22;11580;52.562;13.418;2022-11-15T06:00:26;9.50;41.20
22827;DHT22;11580;52.562;13.418;2022-11-15T06:03:12;9.50;41.90
22827;DHT22;11580;52.562;13.418;2022-11-15T06:05:58;9.50;41.90
22827;DHT22;11580;52.562;13.418;2022-11-15T06:08:45;9.50;41.20
22827;DHT22;11580;52.562;13.418;2022-11-15T06:11:31;9.40;41.90
22827;DHT22;11580;52.562;13.418;2022-11-15T06:14:17;9.50;41.90
22827;DHT22;11580;52.562;13.418;2022-11-15T06:17:02;9.50;41.20
22827;DHT22;11580;52.562;13.418;2022-11-15T06:19:48;9.50;42.00
22827;DHT22;11580;52.562;13.418;2022-11-15T06:22:34;9.40;41.80
22827;DHT22;11580;52.562;13.418;2022-11-15T06:25:21;9.40;41.20
22827;DHT22;11580;52.562;13.418;2022-11-15T06:28:07;9.50;41.30
22827;DHT22;11580;52.562;13.418;2022-11-15T06:30:52;9.50;41.20
22827;DHT22;11580;52.562;13.418;2022-11-15T06:33:38;9.40;41.80
22827;DHT22;11580;52.562;13.418;2022-11-15T06:36:25;9.40;41.10
22827;DHT22;11580;52.562;13.418;2022-11-15T06:39:10;9.40;41.10
22827;DHT22;11580;52.562;13.418;2022-11-15T06:41:58;9.40;41.80
22827;DHT22;11580;52.562;13.418;2022-11-15T06:44:44;9.40;41.30
22827;DHT22;11580;52.562;13.418;2022-11-15T06:47:29;9.40;42.00
22827;DHT22;11580;52.562;13.418;2022-11-15T06:50:15;9.50;41.40
22827;DHT22;11580;52.562;13.418;2022-11-15T06:53:01;9.50;41.60
22827;DHT22;11580;52.562;13.418;2022-11-15T06:55:48;9.50;42.30
22827;DHT22;11580;52.562;13.418;2022-11-15T06:58:35;9.50;42.40
22827;DHT22;11580;52.562;13.418;2022-11-15T07:01:21;9.60;42.00
22827;DHT22;11580;52.562;13.418;2022-11-15T07:04:06;9.60;41.90
22827;DHT22;11580;52.562;13.418;2022-11-15T07:06:52;9.60;42.00
22827;DHT22;11580;52.562;13.418;2022-11-15T07:09:37;9.70;42.10
22827;DHT22;11580;52.562;13.418;2022-11-15T07:12:23;9.70;42.10
22827;DHT22;11580;52.562;13.418;2022-11-15T07:15:10;9.80;42.20
22827;DHT22;11580;52.562;13.418;2022-11-15T07:18:00;9.90;42.40
22827;DHT22;11580;52.562;13.418;2022-11-15T07:20:46;9.90;42.60
22827;DHT22;11580;52.562;13.418;2022-11-15T07:23:32;10.00;41.50
22827;DHT22;11580;52.562;13.418;2022-11-15T07:26:18;10.10;41.50
22827;DHT22;11580;52.562;13.418;2022-11-15T07:29:04;10.10;42.20
22827;DHT22;11580;52.562;13.418;2022-11-15T07:31:51;10.20;41.60
22827;DHT22;11580;52.562;13.418;2022-11-15T07:34:37;10.30;41.70
22827;DHT22;11580;52.562;13.418;2022-11-15T07:37:22;10.40;41.60
22827;DHT22;11580;52.562;13.418;2022-11-15T07:40:09;10.40;42.20
22827;DHT22;11580;52.562;13.418;2022-11-15T07:42:59;10.50;41.60
22827;DHT22;11580;52.562;13.418;2022-11-15T07:45:45;10.60;41.70
22827;DHT22;11580;52.562;13.418;2022-11-15T07:48:32;10.70;41.60
22827;DHT22;11580;52.562;13.418;2022-11-15T07:51:18;10.80;41.70
22827;DHT22;11580;52.562;13.418;2022-11-15T07:54:04;10.80;41.50
22827;DHT22;11580;52.562;13.418;2022-11-15T07:56:49;10.90;41.50
22827;DHT22;11580;52.562;13.418;2022-11-15T07:59:35;11.00;42.20
22827;DHT22;11580;52.562;13.418;2022-11-15T08:02:20;11.10;41.50
22827;DHT22;11580;52.562;13.418;2022-11-15T08:05:08;11.20;42.10
22827;DHT22;11580;52.562;13.418;2022-11-15T08:07:55;11.30;41.40
22827;DHT22;11580;52.562;13.418;2022-11-15T08:10:41;11.40;41.40
22827;DHT22;11580;52.562;13.418;2022-11-15T08:13:26;11.40;41.40
22827;DHT22;11580;52.562;13.418;2022-11-15T08:16:12;11.50;41.50
22827;DHT22;11580;52.562;13.418;2022-11-15T08:18:58;11.60;41.60
22827;DHT22;11580;52.562;13.418;2022-11-15T08:21:45;11.70;41.70
22827;DHT22;11580;52.562;13.418;2022-11-15T08:24:31;11.80;41.80
22827;DHT22;11580;52.562;13.418;2022-11-15T08:27:16;11.90;41.90
22827;DHT22;11580;52.562;13.418;2022-11-15T08:30:02;12.00;42.50
22827;DHT22;11580;52.562;13.418;2022-11-15T08:32:49;12.10;42.30
22827;DHT22;11580;52.562;13.418;2022-11-15T08:35:35;12.10;41.40
22827;DHT22;11580;52.562;13.418;2022-11-15T08:38:23;12.20;42.10
22827;DHT22;11580;52.562;13.418;2022-11-15T08:41:12;12.30;41.40
22827;DHT22;11580;52.562;13.418;2022-11-15T08:44:01;12.40;41.20
22827;DHT22;11580;52.562;13.418;2022-11-15T08:46:47;12.50;41.30
22827;DHT22;11580;52.562;13.418;2022-11-15T08:49:33;12.60;41.30
22827;DHT22;11580;52.562;13.418;2022-11-15T08:52:18;12.60;41.20
22827;DHT22;11580;52.562;13.418;2022-11-15T08:55:07;12.80;41.20
22827;DHT22;11580;52.562;13.418;2022-11-15T08:57:53;12.80;40.90
22827;DHT22;11580;52.562;13.418;2022-11-15T09:00:38;12.90;41.80
22827;DHT22;11580;52.562;13.418;2022-11-15T09:03:24;13.00;41.00
22827;DHT22;11580;52.562;13.418;2022-11-15T09:06:10;13.10;41.00
22827;DHT22;11580;52.562;13.418;2022-11-15T09:08:56;13.10;40.90
22827;DHT22;11580;52.562;13.418;2022-11-15T09:11:43;13.20;41.40
22827;DHT22;11580;52.562;13.418;2022-11-15T09:14:29;13.30;40.10
22827;DHT22;11580;52.562;13.418;2022-11-15T09:17:14;13.40;41.50
22827;DHT22;11580;52.562;13.418;2022-11-15T09:20:00;13.40;40.60
22827;DHT22;11580;52.562;13.418;2022-11-15T09:22:45;13.50;40.50
22827;DHT22;11580;52.562;13.418;2022-11-15T09:25:32;13.60;40.50
22827;DHT22;11580;52.562;13.418;2022-11-15T09:28:19;13.60;40.30
22827;DHT22;11580;52.562;13.418;2022-11-15T09:31:05;13.70;40.10
22827;DHT22;11580;52.562;13.418;2022-11-15T09:33:52;14.00;40.30
22827;DHT22;11580;52.562;13.418;2022-11-15T09:36:38;13.90;40.00
22827;DHT22;11580;52.562;13.418;2022-11-15T09:39:23;13.90;40.10
22827;DHT22;11580;52.562;13.418;2022-11-15T09:42:23;14.00;40.10
22827;DHT22;11580;52.562;13.418;2022-11-15T09:45:22;14.10;39.20
22827;DHT22;11580;52.562;13.418;2022-11-15T09:48:32;14.20;39.50
22827;DHT22;11580;52.562;13.418;2022-11-15T09:51:34;14.20;38.90
22827;DHT22;11580;52.562;13.418;2022-11-15T09:54:20;14.30;39.50
22827;DHT22;11580;52.562;13.418;2022-11-15T09:56:53;14.40;39.10
22827;DHT22;11580;52.562;13.418;2022-11-15T09:59:52;14.60;39.60
22827;DHT22;11580;52.562;13.418;2022-11-15T10:02:45;14.50;38.70
22827;DHT22;11580;52.562;13.418;2022-11-15T10:05:22;14.60;38.60
22827;DHT22;11580;52.562;13.418;2022-11-15T10:07:57;14.70;39.30
22827;DHT22;11580;52.562;13.418;2022-11-15T10:10:35;14.70;38.80
22827;DHT22;11580;52.562;13.418;2022-11-15T10:13:07;14.80;38.60
22827;DHT22;11580;52.562;13.418;2022-11-15T10:15:43;14.90;39.20
22827;DHT22;11580;52.562;13.418;2022-11-15T10:18:22;14.90;39.20
22827;DHT22;11580;52.562;13.418;2022-11-15T10:21:09;15.00;38.50
22827;DHT22;11580;52.562;13.418;2022-11-15T10:23:43;15.10;38.60
22827;DHT22;11580;52.562;13.418;2022-11-15T10:26:15;15.20;39.20
22827;DHT22;11580;52.562;13.418;2022-11-15T10:28:43;15.20;38.60
22827;DHT22;11580;52.562;13.418;2022-11-15T10:31:22;15.30;39.10
22827;DHT22;11580;52.562;13.418;2022-11-15T10:33:53;15.30;37.90
22827;DHT22;11580;52.562;13.418;2022-11-15T10:36:36;15.40;38.80
22827;DHT22;11580;52.562;13.418;2022-11-15T10:39:03;15.50;38.90
22827;DHT22;11580;52.562;13.418;2022-11-15T10:41:35;15.50;38.90
22827;DHT22;11580;52.562;13.418;2022-11-15T10:44:20;15.60;38.50
22827;DHT22;11580;52.562;13.418;2022-11-15T10:47:06;15.70;37.60
22827;DHT22;11580;52.562;13.418;2022-11-15T10:49:58;15.80;37.10
22827;DHT22;11580;52.562;13.418;2022-11-15T10:52:31;15.80;36.90
22827;DHT22;11580;52.562;13.418;2022-11-15T10:55:05;15.90;38.90
22827;DHT22;11580;52.562;13.418;2022-11-15T10:57:50;15.90;37.60
22827;DHT22;11580;52.562;13.418;2022-11-15T11:00:35;16.00;37.60
22827;DHT22;11580;52.562;13.418;2022-11-15T11:03:06;16.00;36.60
22827;DHT22;11580;52.562;13.418;2022-11-15T11:06:07;16.10;37.60
22827;DHT22;11580;52.562;13.418;2022-11-15T11:08:36;16.10;36.30
22827;DHT22;11580;52.562;13.418;2022-11-15T11:11:04;16.20;37.60
22827;DHT22;11580;52.562;13.418;2022-11-15T11:13:34;16.20;37.40
22827;DHT22;11580;52.562;13.418;2022-11-15T11:16:30;16.20;37.20
22827;DHT22;11580;52.562;13.418;2022-11-15T11:22:25;16.30;36.10
22827;DHT22;11580;52.562;13.418;2022-11-15T11:25:08;16.40;36.90
22827;DHT22;11580;52.562;13.418;2022-11-15T11:27:56;16.40;36.60
22827;DHT22;11580;52.562;13.418;2022-11-15T11:30:43;16.40;36.20
22827;DHT22;11580;52.562;13.418;2022-11-15T11:33:18;16.50;36.30
22827;DHT22;11580;52.562;13.418;2022-11-15T11:35:56;16.50;36.80
22827;DHT22;11580;52.562;13.418;2022-11-15T11:38:44;16.50;36.10
22827;DHT22;11580;52.562;13.418;2022-11-15T11:41:34;16.50;35.50
22827;DHT22;11580;52.562;13.418;2022-11-15T11:44:23;16.60;35.90
22827;DHT22;11580;52.562;13.418;2022-11-15T11:46:59;16.60;36.00
22827;DHT22;11580;52.562;13.418;2022-11-15T11:49:31;16.60;36.50
22827;DHT22;11580;52.562;13.418;2022-11-15T11:52:10;16.70;36.10
22827;DHT22;11580;52.562;13.418;2022-11-15T11:54:53;16.70;35.90
22827;DHT22;11580;52.562;13.418;2022-11-15T11:57:34;16.70;35.70
22827;DHT22;11580;52.562;13.418;2022-11-15T12:00:16;16.80;35.80
22827;DHT22;11580;52.562;13.418;2022-11-15T12:03:01;16.80;35.50
22827;DHT22;11580;52.562;13.418;2022-11-15T12:05:35;16.80;36.10
22827;DHT22;11580;52.562;13.418;2022-11-15T12:08:22;16.80;36.30
22827;DHT22;11580;52.562;13.418;2022-11-15T12:11:01;16.90;35.10
22827;DHT22;11580;52.562;13.418;2022-11-15T12:13:36;16.90;35.50
22827;DHT22;11580;52.562;13.418;2022-11-15T12:16:10;16.90;36.20
22827;DHT22;11580;52.562;13.418;2022-11-15T12:18:46;17.00;35.60
22827;DHT22;11580;52.562;13.418;2022-11-15T12:21:20;16.90;35.70
22827;DHT22;11580;52.562;13.418;2022-11-15T12:23:57;16.90;35.60
22827;DHT22;11580;52.562;13.418;2022-11-15T12:26:34;16.90;35.60
22827;DHT22;11580;52.562;13.418;2022-11-15T12:29:11;17.00;35.40
22827;DHT22;11580;52.562;13.418;2022-11-15T12:31:45;17.00;35.10
22827;DHT22;11580;52.562;13.418;2022-11-15T12:43:43;17.10;35.60
22827;DHT22;11580;52.562;13.418;2022-11-15T12:46:18;17.10;35.60
22827;DHT22;11580;52.562;13.418;2022-11-15T12:48:51;17.10;36.30
22827;DHT22;11580;52.562;13.418;2022-11-15T12:51:21;17.10;35.60
22827;DHT22;11580;52.562;13.418;2022-11-15T12:57:41;17.10;34.60
22827;DHT22;11580;52.562;13.418;2022-11-15T13:00:44;17.10;34.60
22827;DHT22;11580;52.562;13.418;2022-11-15T13:03:26;17.10;34.60
22827;DHT22;11580;52.562;13.418;2022-11-15T13:06:08;17.10;34.40
22827;DHT22;11580;52.562;13.418;2022-11-15T13:08:56;17.10;34.90
22827;DHT22;11580;52.562;13.418;2022-11-15T13:11:43;17.10;35.60
22827;DHT22;11580;52.562;13.418;2022-11-15T13:14:43;17.10;34.50
22827;DHT22;11580;52.562;13.418;2022-11-15T13:17:35;17.10;34.60
22827;DHT22;11580;52.562;13.418;2022-11-15T13:20:23;17.10;34.60
22827;DHT22;11580;52.562;13.418;2022-11-15T13:23:07;17.10;34.60
22827;DHT22;11580;52.562;13.418;2022-11-15T13:25:54;17.10;34.60
22827;DHT22;11580;52.562;13.418;2022-11-15T13:28:32;17.10;35.00
22827;DHT22;11580;52.562;13.418;2022-11-15T13:31:17;17.10;35.10
22827;DHT22;11580;52.562;13.418;2022-11-15T13:33:50;17.10;34.40
22827;DHT22;11580;52.562;13.418;2022-11-15T13:36:20;17.10;35.10
22827;DHT22;11580;52.562;13.418;2022-11-15T13:38:58;17.10;35.80
22827;DHT22;11580;52.562;13.418;2022-11-15T13:41:28;17.10;34.40
22827;DHT22;11580;52.562;13.418;2022-11-15T13:43:58;17.10;35.30
22827;DHT22;11580;52.562;13.418;2022-11-15T13:46:27;17.00;35.30
22827;DHT22;11580;52.562;13.418;2022-11-15T13:48:59;17.00;35.20
22827;DHT22;11580;52.562;13.418;2022-11-15T13:51:33;17.00;34.90
22827;DHT22;11580;52.562;13.418;2022-11-15T13:54:15;17.00;34.90
22827;DHT22;11580;52.562;13.418;2022-11-15T13:56:52;17.00;34.50
22827;DHT22;11580;52.562;13.418;2022-11-15T13:59:24;17.00;35.10
22827;DHT22;11580;52.562;13.418;2022-11-15T14:01:53;16.90;35.00
22827;DHT22;11580;52.562;13.418;2022-11-15T14:04:24;16.90;35.20
22827;DHT22;11580;52.562;13.418;2022-11-15T14:06:56;16.90;35.00
22827;DHT22;11580;52.562;13.418;2022-11-15T14:09:36;16.90;35.10
22827;DHT22;11580;52.562;13.418;2022-11-15T14:12:23;16.90;34.70
22827;DHT22;11580;52.562;13.418;2022-11-15T14:14:52;16.90;34.50
22827;DHT22;11580;52.562;13.418;2022-11-15T14:17:21;16.80;35.10
22827;DHT22;11580;52.562;13.418;2022-11-15T14:20:02;16.80;35.10
22827;DHT22;11580;52.562;13.418;2022-11-15T14:22:52;16.80;35.10
22827;DHT22;11580;52.562;13.418;2022-11-15T14:25:20;16.80;35.70
22827;DHT22;11580;52.562;13.418;2022-11-15T14:28:16;16.70;35.20
22827;DHT22;11580;52.562;13.418;2022-11-15T14:30:59;16.70;35.00
22827;DHT22;11580;52.562;13.418;2022-11-15T14:33:29;16.60;35.30
22827;DHT22;11580;52.562;13.418;2022-11-15T14:36:03;16.60;35.30
22827;DHT22;11580;52.562;13.418;2022-11-15T14:38:33;16.50;35.20
22827;DHT22;11580;52.562;13.418;2022-11-15T14:41:00;16.50;35.40
22827;DHT22;11580;52.562;13.418;2022-11-15T14:43:27;16.50;35.50
22827;DHT22;11580;52.562;13.418;2022-11-15T14:45:55;16.40;35.50
22827;DHT22;11580;52.562;13.418;2022-11-15T14:48:22;16.30;35.50
22827;DHT22;11580;52.562;13.418;2022-11-15T14:50:49;16.20;35.50
22827;DHT22;11580;52.562;13.418;2022-11-15T14:53:18;16.20;35.60
22827;DHT22;11580;52.562;13.418;2022-11-15T14:55:46;16.10;35.60
22827;DHT22;11580;52.562;13.418;2022-11-15T14:58:13;16.10;35.70
22827;DHT22;11580;52.562;13.418;2022-11-15T15:00:41;16.10;35.90
22827;DHT22;11580;52.562;13.418;2022-11-15T15:03:08;15.90;35.80
22827;DHT22;11580;52.562;13.418;2022-11-15T15:05:38;15.80;35.90
22827;DHT22;11580;52.562;13.418;2022-11-15T15:08:06;15.70;35.90
22827;DHT22;11580;52.562;13.418;2022-11-15T15:10:37;15.80;36.10
22827;DHT22;11580;52.562;13.418;2022-11-15T15:13:06;15.60;36.80
22827;DHT22;11580;52.562;13.418;2022-11-15T15:15:42;15.50;36.80
22827;DHT22;11580;52.562;13.418;2022-11-15T15:18:09;15.60;36.30
22827;DHT22;11580;52.562;13.418;2022-11-15T15:20:38;15.40;36.20
22827;DHT22;11580;52.562;13.418;2022-11-15T15:23:14;15.30;36.40
22827;DHT22;11580;52.562;13.418;2022-11-15T15:25:45;15.30;36.60
22827;DHT22;11580;52.562;13.418;2022-11-15T15:28:14;15.20;36.60
22827;DHT22;11580;52.562;13.418;2022-11-15T15:30:42;15.30;36.70
22827;DHT22;11580;52.562;13.418;2022-11-15T15:33:09;15.10;36.70
22827;DHT22;11580;52.562;13.418;2022-11-15T15:35:36;15.00;36.70
22827;DHT22;11580;52.562;13.418;2022-11-15T15:38:03;14.90;36.70
22827;DHT22;11580;52.562;13.418;2022-11-15T15:40:31;14.90;36.90
22827;DHT22;11580;52.562;13.418;2022-11-15T15:43:01;14.80;36.90
22827;DHT22;11580;52.562;13.418;2022-11-15T15:45:28;14.70;37.00
22827;DHT22;11580;52.562;13.418;2022-11-15T15:47:55;14.70;37.10
22827;DHT22;11580;52.562;13.418;2022-11-15T15:50:25;14.60;37.10
22827;DHT22;11580;52.562;13.418;2022-11-15T15:52:55;14.60;37.30
22827;DHT22;11580;52.562;13.418;2022-11-15T15:55:25;14.60;37.50
22827;DHT22;11580;52.562;13.418;2022-11-15T15:57:53;14.40;37.40
22827;DHT22;11580;52.562;13.418;2022-11-15T16:00:23;14.40;37.50
22827;DHT22;11580;52.562;13.418;2022-11-15T16:02:51;14.30;37.90
22827;DHT22;11580;52.562;13.418;2022-11-15T16:05:19;14.40;38.00
22827;DHT22;11580;52.562;13.418;2022-11-15T16:07:47;14.30;37.90
22827;DHT22;11580;52.562;13.418;2022-11-15T16:10:18;14.20;38.50
22827;DHT22;11580;52.562;13.418;2022-11-15T16:12:48;14.10;38.20
22827;DHT22;11580;52.562;13.418;2022-11-15T16:15:16;14.10;38.00
22827;DHT22;11580;52.562;13.418;2022-11-15T16:17:48;14.10;38.10
22827;DHT22;11580;52.562;13.418;2022-11-15T16:20:28;14.00;38.50
22827;DHT22;11580;52.562;13.418;2022-11-15T16:22:58;14.00;38.60
22827;DHT22;11580;52.562;13.418;2022-11-15T16:25:25;13.90;38.00
22827;DHT22;11580;52.562;13.418;2022-11-15T16:27:53;13.90;38.00
22827;DHT22;11580;52.562;13.418;2022-11-15T16:30:21;13.90;38.10
22827;DHT22;11580;52.562;13.418;2022-11-15T16:32:50;14.00;38.30
22827;DHT22;11580;52.562;13.418;2022-11-15T16:35:19;13.80;38.30
22827;DHT22;11580;52.562;13.418;2022-11-15T16:37:46;13.80;38.20
22827;DHT22;11580;52.562;13.418;2022-11-15T16:40:25;13.70;38.10
22827;DHT22;11580;52.562;13.418;2022-11-15T16:42:55;13.60;38.70
22827;DHT22;11580;52.562;13.418;2022-11-15T16:45:23;13.60;38.20
22827;DHT22;11580;52.562;13.418;2022-11-15T16:47:52;13.60;38.30
22827;DHT22;11580;52.562;13.418;2022-11-15T16:50:21;13.50;39.20
22827;DHT22;11580;52.562;13.418;2022-11-15T16:52:51;13.40;38.40
22827;DHT22;11580;52.562;13.418;2022-11-15T16:55:19;13.40;38.40
22827;DHT22;11580;52.562;13.418;2022-11-15T16:57:48;13.30;38.30
22827;DHT22;11580;52.562;13.418;2022-11-15T17:00:17;13.30;38.40
22827;DHT22;11580;52.562;13.418;2022-11-15T17:02:46;13.20;38.40
22827;DHT22;11580;52.562;13.418;2022-11-15T17:05:18;13.20;38.40
22827;DHT22;11580;52.562;13.418;2022-11-15T17:07:47;13.10;38.60
22827;DHT22;11580;52.562;13.418;2022-11-15T17:10:19;13.10;38.50
22827;DHT22;11580;52.562;13.418;2022-11-15T17:12:47;13.00;38.40
22827;DHT22;11580;52.562;13.418;2022-11-15T17:15:15;12.90;38.40
22827;DHT22;11580;52.562;13.418;2022-11-15T17:17:42;12.90;38.40